This is the latest recevied weather packets stored in our database for station/object GNDRAP-WX. If no packets are shown the sender has not sent any weather packets the latest 1 day(s).
| Time | Temp. | Humidity | Pressure | Rain* | Wind** | Luminosity | Snow |
|---|---|---|---|---|---|---|---|
| 1778087760 | 11.67° C | 33% | 987.7 hPa | 0 mm | - | - | - |
| 1778085960 | 11.67° C | 38% | 987.1 hPa | 0 mm | - | - | - |
| 1778084160 | 10.56° C | 38% | 987.1 hPa | 0 mm | - | - | - |
| 1778076094 | 7.78° C | 51% | 986.5 hPa | 0 mm | - | - | - |
| 1778069761 | 4.44° C | 69% | 984.9 hPa | 0 mm | - | - | - |
| 1778068899 | 4.44° C | 69% | 984.9 hPa | 0 mm | - | - | - |
| 1778067959 | 3.89° C | 75% | 984.3 hPa | 0 mm | - | - | - |
| 1778067075 | 3.33° C | 72% | 984.3 hPa | 0 mm | - | - | - |
| 1778066157 | 2.78° C | 72% | 984.3 hPa | 0 mm | - | - | - |
| 1778064356 | 2.22° C | 66% | 983.8 hPa | 0 mm | - | - | - |
| 1778061695 | 2.78° C | 66% | 984.3 hPa | 0 mm | - | - | - |
| 1778059873 | 3.33° C | 64% | 983.7 hPa | 0 mm | - | - | - |
| 1778058956 | 3.33° C | 64% | 983.7 hPa | 0 mm | - | - | - |
| 1778055356 | 3.89° C | 61% | 983.6 hPa | 0 mm | - | - | - |
| 1778053555 | 4.44° C | 64% | 983.5 hPa | 0 mm | - | - | - |
| 1778052675 | 4.44° C | 64% | 983.5 hPa | 0 mm | - | - | - |
| 1778051756 | 5° C | 64% | 983.5 hPa | 0 mm | - | - | - |
| 1778050885 | 5° C | 64% | 983.5 hPa | 0 mm | - | - | - |
| 1778049956 | 5° C | 69% | 984 hPa | 0 mm | - | - | - |
| 1778049074 | 5.56° C | 69% | 984 hPa | 0 mm | - | - | - |
| 1778048156 | 5.56° C | 69% | 984 hPa | 0 mm | - | - | - |
| 1778047301 | 5.56° C | 69% | 984 hPa | 0 mm | - | - | - |
| 1778045472 | 6.11° C | 61% | 983.7 hPa | 0 mm | - | - | - |
| 1778043693 | 6.11° C | 61% | 983.7 hPa | 0 mm | - | - | - |
| 1778040956 | 6.67° C | 62% | 984.1 hPa | 0 mm | - | - | - |
* Rain latest hour (hover to see other rain measurements)
** Current wind speed in m/s (hover to see current wind gust speed)